TimeEST,TemperatureF,Dew PointF,Humidity,Sea Level PressureIn,VisibilityMPH,Wind Direction,Wind SpeedMPH,Gust SpeedMPH,PrecipitationIn,Events,Conditions,WindDirDegrees,DateUTC
12:15 AM,33.8,24.8,70,30.18,10.0,NNE,5.8,-,N/A,,Overcast,30,2013-12-31 05:15:00
12:35 AM,33.8,23.0,65,30.17,10.0,NE,4.6,-,N/A,,Overcast,40,2013-12-31 05:35:00
12:55 AM,33.8,23.0,65,30.17,10.0,NNE,3.5,-,N/A,,Overcast,30,2013-12-31 05:55:00
1:15 AM,32.0,23.0,69,30.17,10.0,NNE,3.5,-,N/A,,Overcast,30,2013-12-31 06:15:00
1:35 AM,32.0,23.0,69,30.17,10.0,North,3.5,-,N/A,,Overcast,10,2013-12-31 06:35:00
1:55 AM,32.0,24.8,75,30.17,10.0,NNE,3.5,-,N/A,,Overcast,30,2013-12-31 06:55:00
2:15 AM,32.0,24.8,75,30.17,10.0,NNE,3.5,-,N/A,,Overcast,20,2013-12-31 07:15:00
2:35 AM,33.8,23.0,65,30.18,10.0,North,3.5,-,N/A,,Overcast,10,2013-12-31 07:35:00
2:55 AM,32.0,23.0,69,30.17,10.0,Calm,Calm,-,N/A,,Overcast,0,2013-12-31 07:55:00
3:15 AM,32.0,23.0,69,30.17,10.0,Calm,Calm,-,N/A,,Overcast,0,2013-12-31 08:15:00
3:35 AM,33.8,21.2,60,30.17,10.0,Calm,Calm,-,N/A,,Overcast,0,2013-12-31 08:35:00
3:55 AM,33.8,21.2,60,30.17,10.0,Calm,Calm,-,N/A,,Overcast,0,2013-12-31 08:55:00
4:15 AM,32.0,24.8,75,30.16,10.0,Calm,Calm,-,N/A,,Overcast,0,2013-12-31 09:15:00
4:35 AM,32.0,24.8,75,30.16,10.0,Calm,Calm,-,N/A,,Overcast,0,2013-12-31 09:35:00
4:55 AM,32.0,26.6,80,30.16,10.0,Calm,Calm,-,N/A,,Overcast,0,2013-12-31 09:55:00
5:15 AM,32.0,26.6,80,30.16,10.0,Calm,Calm,-,N/A,,Overcast,0,2013-12-31 10:15:00
5:35 AM,30.2,26.6,86,30.16,10.0,Calm,Calm,-,N/A,,Overcast,0,2013-12-31 10:35:00
5:55 AM,30.2,28.4,93,30.17,10.0,Calm,Calm,-,N/A,,Overcast,0,2013-12-31 10:55:00
6:15 AM,30.2,28.4,93,30.17,10.0,Calm,Calm,-,N/A,,Scattered Clouds,0,2013-12-31 11:15:00
6:45 AM,28.4,26.6,93,30.18,10.0,Calm,Calm,-,N/A,,Partly Cloudy,0,2013-12-31 11:45:00
7:45 AM,26.6,26.6,100,30.17,10.0,SSE,3.5,-,N/A,,Clear,150,2013-12-31 12:45:00
8:45 AM,33.8,28.4,81,30.17,10.0,SSW,4.6,-,N/A,,Clear,200,2013-12-31 13:45:00
9:50 AM,35.6,28.4,75,30.18,10.0,SSW,8.1,-,N/A,,Scattered Clouds,200,2013-12-31 14:50:00
10:55 AM,39.2,30.2,70,30.16,10.0,SW,11.5,16.1,N/A,,Clear,230,2013-12-31 15:55:00
11:45 AM,41.0,28.4,61,30.14,10.0,WSW,9.2,-,N/A,,Partly Cloudy,240,2013-12-31 16:45:00
12:45 PM,42.8,26.6,53,30.13,10.0,SW,9.2,-,N/A,,Mostly Cloudy,230,2013-12-31 17:45:00
1:20 PM,46.4,26.6,46,30.14,10.0,West,10.4,20.7,N/A,,Scattered Clouds,260,2013-12-31 18:20:00
3:55 PM,42.8,21.2,42,30.17,10.0,NNW,13.8,23.0,N/A,,Clear,340,2013-12-31 20:55:00
4:45 PM,39.2,21.2,49,30.22,10.0,NNW,9.2,-,N/A,,Clear,340,2013-12-31 21:45:00
5:45 PM,37.4,19.4,48,30.24,10.0,NNW,10.4,-,N/A,,Clear,340,2013-12-31 22:45:00
6:45 PM,33.8,19.4,56,30.27,10.0,North,10.4,-,N/A,,Clear,360,2013-12-31 23:45:00
7:55 PM,30.2,21.2,69,30.30,10.0,NNW,5.8,-,N/A,,Clear,330,2014-01-01 00:55:00
8:15 PM,28.4,21.2,74,30.30,10.0,North,5.8,-,N/A,,Clear,350,2014-01-01 01:15:00
8:35 PM,30.2,21.2,69,30.31,10.0,ESE,3.5,-,N/A,,Clear,110,2014-01-01 01:35:00
8:55 PM,30.2,21.2,69,30.31,10.0,North,6.9,-,N/A,,Clear,360,2014-01-01 01:55:00
9:15 PM,28.4,21.2,74,30.31,10.0,North,5.8,-,N/A,,Clear,360,2014-01-01 02:15:00
9:35 PM,30.2,21.2,69,30.31,10.0,North,3.5,-,N/A,,Clear,10,2014-01-01 02:35:00
9:55 PM,28.4,21.2,74,30.31,10.0,NNE,3.5,-,N/A,,Clear,20,2014-01-01 02:55:00
10:15 PM,28.4,21.2,74,30.31,10.0,North,3.5,-,N/A,,Clear,350,2014-01-01 03:15:00